Time;durP1;ratioP1;P1;durP2;ratioP2;P2;SDS_P1;SDS_P2;PMS_P1;PMS_P2;Temp;Humidity;BMP_temperature;BMP_pressure;BME280_temperature;BME280_humidity;BME280_pressure;Samples;Min_cycle;Max_cycle;Signal;HPM_P1;HPM_P2
2021/04/21 00:02:00;;;;;;;31.77;24.45;;;;;;;11.30;66.32;100251.84;5088407;28;20058;-77
2021/04/21 00:04:29;;;;;;;29.80;23.95;;;;;;;11.30;66.50;100263.81;5092834;28;20052;-77
2021/04/21 00:06:58;;;;;;;32.40;25.30;;;;;;;11.27;66.33;100258.03;5092550;28;20052;-77
2021/04/21 00:09:26;;;;;;;31.48;25.58;;;;;;;11.26;65.96;100254.44;5092865;28;20052;-78
2021/04/21 00:11:54;;;;;;;31.23;25.45;;;;;;;11.29;65.61;100259.34;5091214;28;20036;-78
2021/04/21 00:14:24;;;;;;;33.33;24.65;;;;;;;11.29;65.51;100261.31;5092323;28;20052;-77
2021/04/21 00:16:58;;;;;;;30.25;24.20;;;;;;;11.26;65.72;100257.22;5092617;28;20059;-77
2021/04/21 00:19:27;;;;;;;29.55;23.27;;;;;;;11.24;65.88;100241.97;5092561;28;20052;-77
2021/04/21 00:21:56;;;;;;;27.90;22.58;;;;;;;11.25;65.11;100243.59;5094025;28;20056;-77
2021/04/21 00:24:23;;;;;;;27.70;23.23;;;;;;;11.23;65.49;100252.28;5085948;28;20154;-77
2021/04/21 00:26:53;;;;;;;27.70;21.40;;;;;;;11.22;65.55;100247.88;5076916;28;20052;-78
2021/04/21 00:29:22;;;;;;;26.95;22.50;;;;;;;11.18;65.65;100244.09;5076244;28;20056;-76
2021/04/21 00:31:50;;;;;;;27.95;23.20;;;;;;;11.18;66.00;100250.47;5075582;28;20048;-77
2021/04/21 00:34:19;;;;;;;30.33;24.02;;;;;;;11.20;66.54;100239.00;5075815;28;20053;-78
2021/04/21 00:36:49;;;;;;;29.77;24.40;;;;;;;11.18;66.21;100247.69;5075814;28;20052;-76
2021/04/21 00:39:19;;;;;;;30.30;24.13;;;;;;;11.18;66.61;100246.88;5086460;28;20159;-77
2021/04/21 00:41:55;;;;;;;29.77;24.58;;;;;;;11.16;66.99;100240.81;5095821;28;20048;-77
2021/04/21 00:44:30;;;;;;;29.83;24.27;;;;;;;11.13;66.85;100242.28;5095673;28;20413;-76
2021/04/21 00:47:04;;;;;;;29.20;23.90;;;;;;;11.15;66.22;100245.56;5095641;28;20056;-76
2021/04/21 00:49:41;;;;;;;30.85;24.05;;;;;;;11.17;66.39;100242.44;5096559;28;20052;-77
2021/04/21 00:52:15;;;;;;;29.38;24.20;;;;;;;11.17;66.09;100251.63;5094673;28;20052;-77
2021/04/21 00:54:49;;;;;;;32.72;24.70;;;;;;;11.16;65.77;100246.38;5095801;28;20048;-77
2021/04/21 00:57:24;;;;;;;30.50;24.30;;;;;;;11.08;65.93;100250.78;5095410;28;20056;-77
2021/04/21 01:02:48;;;;;;;33.83;24.77;;;;;;;10.98;66.11;100239.91;5095149;28;20520;-76
2021/04/21 01:05:21;;;;;;;31.95;24.58;;;;;;;10.96;66.21;100240.25;5095291;28;20423;-77
2021/04/21 01:07:50;;;;;;;29.05;22.63;;;;;;;10.94;66.36;100236.97;5097905;28;20052;-77
2021/04/21 01:10:18;;;;;;;30.17;24.05;;;;;;;10.91;66.73;100234.00;5095607;28;20063;-77
2021/04/21 01:12:48;;;;;;;32.13;24.60;;;;;;;10.87;66.92;100235.78;5095773;28;20048;-77
2021/04/21 01:15:18;;;;;;;28.63;24.08;;;;;;;10.82;67.50;100227.59;5088663;28;20055;-76
2021/04/21 01:17:47;;;;;;;29.35;23.73;;;;;;;10.78;67.44;100224.63;5075101;28;20053;-77
2021/04/21 01:20:22;;;;;;;27.38;21.92;;;;;;;10.78;67.70;100232.97;5075253;28;20063;-77
2021/04/21 01:23:33;;;;;;;31.35;23.33;;;;;;;10.80;67.85;100233.47;5075319;28;20052;-77
2021/04/21 01:26:20;;;;;;;28.17;22.10;;;;;;;10.82;66.65;100227.59;5094592;28;20512;-77
2021/04/21 01:28:53;;;;;;;28.10;22.10;;;;;;;10.80;67.22;100227.91;5095256;28;20493;-77
2021/04/21 01:31:23;;;;;;;28.02;23.35;;;;;;;10.77;67.26;100234.09;5094622;28;20397;-77
2021/04/21 01:33:53;;;;;;;27.85;22.23;;;;;;;10.79;67.10;100231.81;5094255;28;20056;-77
2021/04/21 01:36:22;;;;;;;27.23;22.48;;;;;;;10.75;67.55;100237.22;5095019;28;20057;-77
2021/04/21 01:38:52;;;;;;;29.15;23.92;;;;;;;10.76;67.53;100235.25;5087535;28;20409;-77
2021/04/21 01:41:24;;;;;;;28.42;22.65;;;;;;;10.75;67.54;100233.59;5074282;28;20060;-77
2021/04/21 01:43:55;;;;;;;28.92;23.30;;;;;;;10.79;67.50;100226.25;5074526;28;20060;-77
2021/04/21 01:46:24;;;;;;;32.88;23.73;;;;;;;10.78;67.19;100238.53;5074802;28;20064;-77
2021/04/21 01:48:59;;;;;;;;;;;;;;;10.72;67.21;100231.47;5075162;28;20079;-77
2021/04/21 01:51:33;;;;;;;31.52;23.00;;;;;;;10.67;67.62;100228.84;5075526;28;19921;-77
2021/04/21 01:54:09;;;;;;;29.10;22.83;;;;;;;10.65;67.92;100233.91;5075970;28;20486;-77
2021/04/21 01:56:42;;;;;;;28.85;23.27;;;;;;;10.59;67.95;100230.44;5074927;28;20078;-77
2021/04/21 01:59:21;;;;;;;27.65;22.58;;;;;;;10.59;67.56;100222.06;5074307;28;20159;-77
2021/04/21 02:01:53;;;;;;;27.95;21.75;;;;;;;10.59;67.25;100227.66;5074080;28;20048;-76
2021/04/21 02:04:35;;;;;;;27.30;21.02;;;;;;;10.58;67.06;100226.00;5074302;28;20051;-77
2021/04/21 02:07:19;;;;;;;28.90;21.95;;;;;;;10.54;67.45;100222.19;5091216;28;20102;-76
2021/04/21 02:10:05;;;;;;;28.08;22.67;;;;;;;10.42;68.11;100233.94;5099264;28;20400;-77
2021/04/21 02:12:52;;;;;;;31.00;24.38;;;;;;;10.35;67.98;100225.22;5094151;28;20424;-77
2021/04/21 02:15:29;;;;;;;31.58;24.63;;;;;;;10.28;68.52;100225.66;5093962;28;20062;-77
2021/04/21 02:18:04;;;;;;;34.10;24.90;;;;;;;10.28;68.31;100233.19;5094340;28;20058;-76
2021/04/21 02:20:39;;;;;;;32.40;25.08;;;;;;;10.24;68.47;100237.75;5094582;28;20051;-76
2021/04/21 02:23:12;;;;;;;29.67;23.35;;;;;;;10.24;68.69;100232.16;5092978;28;20413;-77
2021/04/21 02:25:57;;;;;;;28.15;21.48;;;;;;;10.25;68.26;100233.84;5073646;28;20061;-77
2021/04/21 02:28:41;;;;;;;24.90;20.33;;;;;;;10.27;68.13;100237.94;5073917;28;20049;-77
2021/04/21 02:31:29;;;;;;;29.08;21.77;;;;;;;10.30;67.26;100228.16;5073842;28;20052;-76
2021/04/21 02:34:04;;;;;;;25.25;19.35;;;;;;;10.30;67.71;100230.94;5074404;28;20063;-77
2021/04/21 02:36:42;;;;;;;29.13;22.67;;;;;;;10.26;68.10;100229.91;5073945;28;20478;-77
2021/04/21 02:39:16;;;;;;;30.92;22.98;;;;;;;10.24;68.21;100234.97;5085333;28;20048;-77
2021/04/21 02:41:52;;;;;;;30.05;23.25;;;;;;;10.25;68.96;100239.41;5093817;28;20052;-76
2021/04/21 02:44:31;;;;;;;28.15;23.23;;;;;;;10.27;68.58;100237.13;5093485;28;20055;-76
2021/04/21 02:47:06;;;;;;;31.63;23.30;;;;;;;10.29;68.32;100241.25;5089323;28;20055;-76
2021/04/21 02:49:53;;;;;;;30.25;23.60;;;;;;;10.30;67.99;100239.28;5073686;28;20049;-76
2021/04/21 02:52:31;;;;;;;31.65;24.70;;;;;;;10.26;68.69;100235.47;5073225;28;20402;-76
2021/04/21 02:55:12;;;;;;;34.33;26.77;;;;;;;10.28;68.77;100235.97;5073329;28;20402;-76
2021/04/21 02:57:51;;;;;;;31.08;23.10;;;;;;;10.25;67.93;100237.44;5073515;28;20466;-76
2021/04/21 03:00:27;;;;;;;28.40;22.25;;;;;;;10.20;68.19;100233.94;5072988;28;20056;-76
2021/04/21 03:03:09;;;;;;;35.10;26.52;;;;;;;10.15;68.65;100240.47;5087714;28;20062;-76
2021/04/21 03:05:38;;;;;;;33.72;25.92;;;;;;;10.03;68.63;100237.44;5093412;28;20063;-76
2021/04/21 03:08:12;;;;;;;34.45;25.42;;;;;;;10.03;69.07;100238.25;5093707;28;20048;-77
2021/04/21 03:10:46;;;;;;;36.53;26.42;;;;;;;9.98;68.83;100226.44;5094923;28;20043;-76
2021/04/21 03:13:17;;;;;;;33.92;26.45;;;;;;;9.91;68.74;100227.72;5094021;28;20047;-76
2021/04/21 03:15:47;;;;;;;38.58;27.20;;;;;;;9.82;68.55;100237.13;5093934;28;20055;-76
2021/04/21 03:18:18;;;;;;;37.97;28.20;;;;;;;9.73;68.76;100234.28;5093847;28;20055;-76
2021/04/21 03:20:51;;;;;;;40.53;28.25;;;;;;;9.63;69.15;100238.09;5093338;28;20052;-76
2021/04/21 03:23:19;;;;;;;39.95;28.10;;;;;;;9.52;69.69;100231.97;5092698;28;20059;-76
2021/04/21 03:25:49;;;;;;;40.10;28.90;;;;;;;9.43;69.67;100224.66;5074351;28;20049;-77
2021/04/21 03:28:20;;;;;;;39.25;28.70;;;;;;;9.38;69.69;100233.94;5073073;28;20060;-76
2021/04/21 03:30:51;;;;;;;43.33;29.38;;;;;;;9.32;69.83;100236.03;5073512;28;20060;-76
2021/04/21 03:33:24;;;;;;;42.13;27.30;;;;;;;9.25;70.14;100235.63;5073447;28;20048;-76
2021/04/21 03:35:52;;;;;;;37.63;26.58;;;;;;;9.22;69.91;100235.41;5073893;28;20052;-76
2021/04/21 03:38:21;;;;;;;38.83;26.65;;;;;;;9.15;70.28;100238.63;5076524;28;20056;-76
2021/04/21 03:40:48;;;;;;;38.23;26.80;;;;;;;9.08;70.26;100238.22;5093555;28;20051;-76
2021/04/21 03:43:16;;;;;;;38.42;28.52;;;;;;;9.07;70.20;100236.56;5092926;28;20489;-76
2021/04/21 03:45:49;;;;;;;37.97;27.48;;;;;;;9.05;70.60;100236.91;5092923;28;20208;-76
2021/04/21 03:48:17;;;;;;;38.78;28.08;;;;;;;9.02;70.04;100237.50;5093240;28;20048;-76
2021/04/21 03:50:50;;;;;;;38.60;28.02;;;;;;;9.01;70.68;100235.88;5092721;28;20052;-75
2021/04/21 03:53:19;;;;;;;36.83;26.35;;;;;;;8.98;70.44;100224.53;5090030;28;20040;-75
2021/04/21 03:55:46;;;;;;;39.35;26.35;;;;;;;8.95;70.66;100226.00;5072082;28;20059;-76
2021/04/21 03:58:18;;;;;;;37.05;26.23;;;;;;;8.94;70.83;100236.28;5076366;28;20520;-76
2021/04/21 04:00:50;;;;;;;35.28;26.35;;;;;;;8.89;70.65;100239.16;5076235;28;20063;-76
2021/04/21 04:03:24;;;;;;;41.00;29.38;;;;;;;8.84;71.45;100233.72;5076266;28;20060;-76
2021/04/21 04:06:01;;;;;;;39.40;29.05;;;;;;;8.83;71.32;100232.06;5084048;28;20052;-76
2021/04/21 04:08:34;;;;;;;44.60;30.38;;;;;;;8.84;71.41;100230.09;5088435;28;20417;-76
2021/04/21 04:11:02;;;;;;;41.83;28.88;;;;;;;8.80;70.59;100229.91;5076787;28;20067;-77
2021/04/21 04:13:32;;;;;;;43.42;30.42;;;;;;;8.77;71.28;100240.81;5076236;28;20048;-76
2021/04/21 04:16:01;;;;;;;48.42;32.17;;;;;;;8.70;71.30;100239.25;5076633;28;20059;-76
2021/04/21 04:18:30;;;;;;;46.92;30.95;;;;;;;8.67;71.81;100241.81;5076298;28;20048;-76
2021/04/21 04:20:59;;;;;;;41.28;29.95;;;;;;;8.68;71.57;100237.94;5076309;28;20052;-76
2021/04/21 04:23:29;;;;;;;44.53;30.42;;;;;;;8.64;71.64;100236.91;5080439;28;20048;-76
2021/04/21 04:25:59;;;;;;;41.35;27.67;;;;;;;8.63;71.98;100249.13;5096787;28;20059;-76
2021/04/21 04:28:28;;;;;;;42.78;29.17;;;;;;;8.63;72.91;100254.66;5097037;28;20051;-77
2021/04/21 04:30:56;;;;;;;43.03;29.40;;;;;;;8.66;73.32;100248.50;5096742;28;20056;-76
2021/04/21 04:33:24;;;;;;;37.95;25.23;;;;;;;8.69;72.10;100243.19;5096840;28;20051;-76
2021/04/21 04:35:52;;;;;;;41.30;27.42;;;;;;;8.74;71.65;100253.34;5097131;28;20051;-77
2021/04/21 04:38:19;;;;;;;34.03;24.58;;;;;;;8.74;70.96;100258.91;5093982;28;20670;-77
2021/04/21 04:40:52;;;;;;;37.97;26.70;;;;;;;8.70;71.39;100255.09;5078040;28;20474;-77
2021/04/21 04:43:20;;;;;;;48.63;30.02;;;;;;;8.70;71.31;100260.66;5076662;28;20048;-77
2021/04/21 04:45:51;;;;;;;40.85;28.75;;;;;;;8.69;71.50;100251.50;5076738;28;20061;-77
2021/04/21 04:48:26;;;;;;;41.65;28.98;;;;;;;8.74;71.08;100258.91;5076971;28;20052;-77
2021/04/21 04:51:06;;;;;;;45.17;30.55;;;;;;;8.76;71.46;100259.44;5076997;28;20052;-77
2021/04/21 04:53:35;;;;;;;48.53;31.90;;;;;;;8.77;71.04;100265.81;5079644;28;20048;-77
2021/04/21 04:56:05;;;;;;;47.25;30.58;;;;;;;8.76;70.40;100262.22;5097225;28;20052;-77
2021/04/21 04:58:33;;;;;;;;;;;;;;;8.71;70.70;100263.13;5097003;28;20123;-77
2021/04/21 05:01:04;;;;;;;44.85;30.10;;;;;;;8.69;71.24;100267.31;5096314;28;19920;-76
2021/04/21 05:03:35;;;;;;;52.80;32.42;;;;;;;8.70;70.98;100263.44;5096777;28;20056;-76
2021/04/21 05:06:05;;;;;;;46.70;32.13;;;;;;;8.73;71.12;100271.97;5096380;28;20055;-77
2021/04/21 05:08:43;;;;;;;45.95;31.27;;;;;;;8.81;71.41;100267.66;5094371;28;20068;-77
2021/04/21 05:11:16;;;;;;;42.40;29.65;;;;;;;8.87;70.80;100266.41;5095035;28;20401;-77
2021/04/21 05:13:46;;;;;;;42.75;29.77;;;;;;;9.00;71.47;100283.41;5082475;28;20055;-77
2021/04/21 05:16:46;;;;;;;42.53;28.30;;;;;;;9.11;70.45;100273.72;5073187;28;20055;-77
2021/04/21 05:19:41;;;;;;;37.83;26.38;;;;;;;9.26;70.31;100281.75;5080537;28;20059;-77
2021/04/21 05:23:00;;;;;;;38.42;27.13;;;;;;;9.40;69.83;100278.13;5088730;28;20059;-77
2021/04/21 05:26:01;;;;;;;38.55;27.35;;;;;;;9.54;69.25;100281.69;5090710;28;20066;-78
2021/04/21 05:29:14;;;;;;;38.45;27.77;;;;;;;9.70;69.44;100284.94;5094837;28;20052;-76
2021/04/21 05:32:16;;;;;;;34.42;26.23;;;;;;;9.89;68.67;100277.28;5055152;28;20052;-76
2021/04/21 05:35:20;;;;;;;33.80;25.77;;;;;;;10.04;68.97;100280.84;5075014;28;20056;-77
2021/04/21 05:38:29;;;;;;;38.58;27.25;;;;;;;10.18;68.94;100277.97;5074831;28;20053;-78
2021/04/21 05:41:12;;;;;;;36.78;27.23;;;;;;;10.32;68.72;100285.16;5082224;28;20392;-77
2021/04/21 05:44:24;;;;;;;42.30;28.17;;;;;;;10.51;67.84;100282.16;5092914;28;20051;-77
2021/04/21 05:47:30;;;;;;;36.63;26.50;;;;;;;10.73;67.65;100278.50;5090905;28;20052;-77
2021/04/21 05:50:14;;;;;;;37.38;28.33;;;;;;;10.97;67.14;100275.31;5085231;28;20047;-77
2021/04/21 05:53:09;;;;;;;41.13;27.75;;;;;;;11.21;66.96;100273.28;5094623;28;20056;-77
2021/04/21 05:56:16;;;;;;;38.05;28.73;;;;;;;11.43;66.59;100278.75;5091145;28;20397;-77
2021/04/21 05:59:04;;;;;;;40.03;25.30;;;;;;;11.66;65.10;100287.00;5072082;28;20052;-77
2021/04/21 06:01:34;;;;;;;31.02;23.13;;;;;;;11.84;63.96;100279.44;5092270;28;20054;-77
2021/04/21 06:04:01;;;;;;;28.48;22.98;;;;;;;12.03;63.36;100287.53;5077611;28;20528;-75
2021/04/21 06:06:28;;;;;;;31.35;23.65;;;;;;;12.17;63.08;100286.19;5086326;28;20062;-75
2021/04/21 06:08:59;;;;;;;31.25;23.92;;;;;;;12.34;62.65;100278.97;5077999;28;20405;-75
2021/04/21 06:11:27;;;;;;;27.75;21.80;;;;;;;12.52;61.81;100279.75;5092635;28;20062;-75
2021/04/21 06:13:56;;;;;;;28.40;23.00;;;;;;;12.69;61.60;100282.50;5087238;28;20040;-75
2021/04/21 06:16:24;;;;;;;29.45;23.25;;;;;;;12.84;61.14;100285.91;5095363;28;20059;-75
2021/04/21 06:18:55;;;;;;;28.58;22.35;;;;;;;12.95;61.11;100293.56;5094216;28;20048;-74
2021/04/21 06:21:23;;;;;;;28.35;23.23;;;;;;;13.09;60.93;100276.59;5094767;28;20055;-74
2021/04/21 06:23:52;;;;;;;30.60;23.55;;;;;;;13.30;60.58;100290.66;5093370;28;20044;-76
2021/04/21 06:26:24;;;;;;;31.10;24.83;;;;;;;13.47;60.27;100291.72;5094182;28;20063;-75
2021/04/21 06:29:06;;;;;;;31.77;25.70;;;;;;;13.49;59.69;100278.22;5094190;28;20500;-76
2021/04/21 06:31:35;;;;;;;33.03;27.08;;;;;;;13.50;60.35;100293.84;5089187;28;20048;-76
2021/04/21 06:34:02;;;;;;;32.13;26.13;;;;;;;13.52;60.17;100291.50;5084132;28;20045;-76
2021/04/21 06:36:35;;;;;;;36.72;29.15;;;;;;;13.47;60.41;100286.13;5074413;28;20052;-76
2021/04/21 06:39:03;;;;;;;39.58;28.95;;;;;;;13.45;59.89;100296.84;5073707;28;20110;-76
2021/04/21 06:41:30;;;;;;;34.05;28.23;;;;;;;13.39;60.51;100301.78;5087247;28;20052;-76
2021/04/21 06:43:58;;;;;;;36.35;28.33;;;;;;;13.41;60.80;100305.06;5094890;28;20516;-76
2021/04/21 06:46:26;;;;;;;39.83;28.58;;;;;;;13.47;60.40;100300.94;5093330;28;20143;-76
2021/04/21 06:48:55;;;;;;;35.22;26.58;;;;;;;13.49;60.85;100301.41;5079315;28;20486;-79
2021/04/21 06:51:25;;;;;;;33.53;26.67;;;;;;;13.53;60.11;100304.34;5081996;28;20051;-77
2021/04/21 06:53:53;;;;;;;38.97;27.92;;;;;;;13.61;60.73;100309.09;5074317;28;20044;-76
2021/04/21 06:56:29;;;;;;;34.38;26.63;;;;;;;13.79;60.25;100305.00;5077996;28;20063;-75
2021/04/21 06:58:56;;;;;;;35.67;28.02;;;;;;;13.94;59.46;100299.94;5075435;28;20048;-74
2021/04/21 07:01:28;;;;;;;34.38;27.75;;;;;;;14.14;58.61;100299.13;5073975;28;20056;-76
2021/04/21 07:04:14;;;;;;;36.45;27.60;;;;;;;14.23;59.07;100304.66;5081858;28;20052;-76
2021/04/21 07:06:42;;;;;;;35.33;26.67;;;;;;;14.33;58.41;100301.44;5091322;28;20048;-76
2021/04/21 07:09:13;;;;;;;33.85;27.58;;;;;;;14.43;58.42;100294.59;5091561;28;20079;-76
2021/04/21 07:11:41;;;;;;;32.50;26.52;;;;;;;14.72;57.58;100299.25;5090793;28;20070;-76
2021/04/21 07:14:10;;;;;;;33.35;26.85;;;;;;;15.14;56.86;100295.44;5091033;28;20059;-76
2021/04/21 07:16:39;;;;;;;30.03;26.13;;;;;;;15.60;55.33;100294.16;5074011;28;20053;-76
2021/04/21 07:19:10;;;;;;;;;;;;;;;15.87;54.91;100305.03;5072496;28;20474;-77
2021/04/21 07:21:40;;;;;;;30.00;24.02;;;;;;;16.53;53.02;100303.75;5089026;28;19924;-76
2021/04/21 07:24:10;;;;;;;30.42;25.13;;;;;;;17.25;50.42;100296.03;5084731;28;20489;-76
2021/04/21 07:26:39;;;;;;;27.80;23.27;;;;;;;18.34;47.65;100300.13;5075480;28;20051;-76
2021/04/21 07:29:09;;;;;;;32.60;24.13;;;;;;;18.44;47.95;100307.19;5091045;28;20052;-77
2021/04/21 07:31:36;;;;;;;;;;;;;;;19.28;45.60;100297.03;5089133;28;20421;-77
2021/04/21 07:34:03;;;;;;;29.95;23.00;;;;;;;20.40;42.12;100297.44;5090150;28;19924;-77
2021/04/21 07:36:44;;;;;;;26.90;23.08;;;;;;;21.42;40.47;100297.31;5092965;28;20066;-76
2021/04/21 07:39:11;;;;;;;26.60;23.70;;;;;;;22.22;37.83;100294.56;5080152;28;20048;-76
2021/04/21 07:41:40;;;;;;;25.88;22.85;;;;;;;23.02;36.24;100298.50;5093464;28;20436;-77
2021/04/21 07:44:24;;;;;;;25.83;23.00;;;;;;;23.69;34.91;100294.81;5094201;28;20063;-77
2021/04/21 07:46:52;;;;;;;28.42;24.33;;;;;;;24.55;32.90;100298.63;5093957;28;20512;-77
2021/04/21 07:49:29;;;;;;;27.63;24.05;;;;;;;25.21;31.45;100295.00;5087087;28;20048;-77
2021/04/21 07:51:59;;;;;;;27.50;23.58;;;;;;;25.90;30.27;100298.88;5086228;28;20052;-79
2021/04/21 07:54:28;;;;;;;27.33;24.52;;;;;;;26.40;29.39;100295.41;5089359;28;20374;-76
2021/04/21 07:56:58;;;;;;;26.90;23.98;;;;;;;27.10;27.87;100300.56;5094144;28;20063;-76
2021/04/21 07:59:27;;;;;;;27.38;24.00;;;;;;;27.68;26.42;100302.50;5090899;28;20060;-76
2021/04/21 08:02:03;;;;;;;28.80;25.85;;;;;;;28.07;26.11;100300.94;5090409;28;20048;-76
2021/04/21 08:04:30;;;;;;;30.27;25.63;;;;;;;28.60;26.13;100304.81;5092226;28;20044;-76
2021/04/21 08:07:00;;;;;;;27.90;24.98;;;;;;;29.47;24.69;100295.78;5088638;28;20044;-76
2021/04/21 08:09:36;;;;;;;25.42;22.92;;;;;;;29.85;24.06;100295.22;5093725;28;20059;-76
2021/04/21 08:12:12;;;;;;;27.38;24.52;;;;;;;30.50;22.87;100290.50;5095069;28;20504;-75
2021/04/21 08:14:41;;;;;;;26.23;23.63;;;;;;;31.10;21.08;100302.22;5090122;28;20040;-73
2021/04/21 08:17:09;;;;;;;27.13;24.35;;;;;;;31.32;22.03;100298.63;5094090;28;20040;-77
2021/04/21 08:19:38;;;;;;;26.88;23.42;;;;;;;31.83;20.62;100301.38;5092682;28;20052;-77
2021/04/21 08:22:07;;;;;;;25.88;23.38;;;;;;;32.34;19.47;100301.19;5094832;28;20052;-77
2021/04/21 08:24:43;;;;;;;23.45;21.25;;;;;;;32.62;17.49;100294.84;5091619;28;20052;-77
2021/04/21 08:27:12;;;;;;;23.35;21.05;;;;;;;32.94;17.48;100300.13;5092177;28;20040;-77
2021/04/21 08:29:40;;;;;;;20.73;18.60;;;;;;;33.42;16.14;100293.25;5092543;28;20056;-74
2021/04/21 08:32:08;;;;;;;22.13;19.88;;;;;;;33.88;15.63;100293.34;5095062;28;20052;-75
2021/04/21 08:34:35;;;;;;;22.33;20.02;;;;;;;34.42;15.50;100296.69;5093987;28;20044;-75
2021/04/21 08:37:02;;;;;;;22.95;20.52;;;;;;;35.05;15.52;100297.00;5095027;28;20477;-82
2021/04/21 08:39:33;;;;;;;21.25;19.25;;;;;;;35.92;14.77;100294.25;5094664;28;20052;-82
2021/04/21 08:42:04;;;;;;;20.40;18.48;;;;;;;36.86;14.76;100304.50;5093365;28;20064;-82
2021/04/21 08:44:36;;;;;;;21.60;19.60;;;;;;;37.29;13.37;100302.03;5100707;28;20048;-82
2021/04/21 08:47:03;;;;;;;21.02;19.13;;;;;;;37.92;13.07;100299.44;5096987;28;20060;-79
2021/04/21 08:49:31;;;;;;;20.70;18.75;;;;;;;38.29;12.05;100303.88;5096822;28;20055;-77
2021/04/21 08:51:59;;;;;;;22.05;19.92;;;;;;;38.96;12.00;100298.72;5095644;28;20044;-77
2021/04/21 08:54:28;;;;;;;21.20;19.40;;;;;;;39.34;11.34;100299.50;5092937;28;20055;-77
2021/04/21 08:57:00;;;;;;;19.30;17.58;;;;;;;39.96;9.95;100305.72;5096899;28;20048;-79
2021/04/21 08:59:27;;;;;;;19.35;17.40;;;;;;;40.05;10.24;100306.78;5093065;28;20071;-75
2021/04/21 09:01:55;;;;;;;20.05;18.15;;;;;;;40.78;9.89;100301.94;5087104;28;20055;-75
2021/04/21 09:04:22;;;;;;;18.40;16.80;;;;;;;40.94;9.59;100305.38;5088230;28;20063;-75
2021/04/21 09:06:49;;;;;;;18.58;16.85;;;;;;;41.58;9.09;100315.13;5092015;28;20504;-75
2021/04/21 09:09:18;;;;;;;17.15;15.55;;;;;;;41.31;8.61;100308.00;5091252;28;20059;-75
2021/04/21 09:11:46;;;;;;;17.75;16.15;;;;;;;41.07;9.04;100308.53;5092260;28;20052;-74
2021/04/21 09:14:15;;;;;;;15.30;13.95;;;;;;;41.28;8.65;100314.13;5092422;28;20044;-75
2021/04/21 09:16:42;;;;;;;10.82;9.65;;;;;;;40.29;7.64;100309.28;5091394;28;20485;-76
2021/04/21 09:19:16;;;;;;;11.32;9.02;;;;;;;38.67;7.60;100307.72;5091501;28;20055;-76
2021/04/21 09:21:45;;;;;;;9.63;8.70;;;;;;;37.28;8.96;100317.88;5091684;28;20059;-76
2021/04/21 09:24:26;;;;;;;11.52;10.15;;;;;;;37.30;9.98;100315.25;5087797;28;20382;-75
2021/04/21 09:26:54;;;;;;;14.98;10.02;;;;;;;36.73;9.60;100320.13;5093551;28;20049;-75
2021/04/21 09:29:26;;;;;;;11.23;9.90;;;;;;;35.51;11.30;100311.25;5092092;28;20048;-74
2021/04/21 09:32:06;;;;;;;12.50;9.88;;;;;;;34.92;10.08;100326.16;5091469;28;20059;-76
2021/04/21 09:34:33;;;;;;;12.15;10.55;;;;;;;34.05;11.20;100326.41;5089442;28;20051;-76
2021/04/21 09:37:00;;;;;;;14.35;10.95;;;;;;;33.68;12.38;100322.69;5088246;28;20048;-76
2021/04/21 09:39:27;;;;;;;13.55;10.70;;;;;;;32.83;12.64;100331.47;5087327;28;20060;-77
2021/04/21 09:41:59;;;;;;;13.18;11.65;;;;;;;32.23;12.94;100328.81;5088965;28;20060;-76
2021/04/21 09:44:30;;;;;;;16.05;11.13;;;;;;;31.96;12.70;100328.09;5092078;28;20051;-77
2021/04/21 09:46:58;;;;;;;13.15;11.20;;;;;;;32.43;12.50;100328.50;5091105;28;20078;-76
2021/04/21 09:49:33;;;;;;;13.73;11.10;;;;;;;33.59;12.21;100319.75;5090770;28;20044;-75
2021/04/21 09:52:02;;;;;;;13.45;10.60;;;;;;;35.39;10.37;100315.22;5072816;28;20065;-74
2021/04/21 09:54:31;;;;;;;10.90;9.70;;;;;;;34.47;10.65;100328.66;5078607;28;20087;-75
2021/04/21 09:57:09;;;;;;;10.65;9.50;;;;;;;33.24;11.64;100325.75;5089769;28;20048;-74
2021/04/21 09:59:37;;;;;;;10.00;9.02;;;;;;;33.03;12.03;100327.41;5089914;28;20044;-74
2021/04/21 10:02:05;;;;;;;11.75;9.02;;;;;;;32.76;12.45;100331.78;5091641;28;20345;-76
2021/04/21 10:04:32;;;;;;;11.48;9.00;;;;;;;31.57;13.53;100329.47;5089145;28;20497;-75
2021/04/21 10:07:01;;;;;;;10.90;9.07;;;;;;;31.12;13.78;100322.69;5088111;28;20059;-75
2021/04/21 10:09:29;;;;;;;;;;;;;;;30.57;14.37;100327.66;5092915;28;20051;-76
2021/04/21 10:12:16;;;;;;;10.10;9.20;;;;;;;32.32;13.20;100317.38;5091673;28;19920;-75
2021/04/21 10:14:46;;;;;;;10.32;8.90;;;;;;;34.74;11.46;100319.16;5092005;28;20044;-75
2021/04/21 10:17:14;;;;;;;10.18;8.95;;;;;;;37.32;9.29;100316.34;5091841;28;20122;-77
2021/04/21 10:19:42;;;;;;;9.95;8.32;;;;;;;37.34;9.48;100316.63;5089423;28;20460;-73
2021/04/21 10:22:13;;;;;;;9.98;8.95;;;;;;;36.21;10.28;100325.47;5089521;28;20044;-75
2021/04/21 10:24:40;;;;;;;11.82;9.52;;;;;;;35.73;9.97;100322.59;5091219;28;20060;-75
2021/04/21 10:27:08;;;;;;;10.90;9.75;;;;;;;37.10;9.38;100328.41;5087886;28;20055;-76
2021/04/21 10:29:37;;;;;;;10.40;8.85;;;;;;;38.83;8.17;100332.47;5083663;28;20044;-75
2021/04/21 10:32:06;;;;;;;10.10;8.38;;;;;;;38.99;8.04;100311.44;5089998;28;20048;-76
2021/04/21 10:34:33;;;;;;;10.30;9.27;;;;;;;39.08;8.25;100322.94;5085863;28;20079;-75
2021/04/21 10:37:02;;;;;;;9.77;8.97;;;;;;;40.33;7.43;100331.03;5083026;28;20074;-76
2021/04/21 10:39:35;;;;;;;11.88;8.30;;;;;;;39.96;8.05;100322.41;5082915;28;20509;-76
2021/04/21 10:42:04;;;;;;;9.52;8.30;;;;;;;38.29;8.69;100325.03;5082257;28;20056;-76
2021/04/21 10:44:32;;;;;;;9.27;8.38;;;;;;;38.91;8.19;100319.03;5080942;28;20079;-75
2021/04/21 10:47:11;;;;;;;9.23;8.33;;;;;;;37.67;9.08;100318.44;5080626;28;20055;-75
2021/04/21 10:49:45;;;;;;;9.30;7.95;;;;;;;36.36;9.99;100317.56;5084417;28;20474;-75
2021/04/21 10:52:17;;;;;;;9.50;8.38;;;;;;;34.89;11.46;100324.25;5079634;28;20044;-74
2021/04/21 10:54:45;;;;;;;9.63;8.40;;;;;;;33.67;12.06;100321.91;5081368;28;20079;-75
2021/04/21 10:57:25;;;;;;;9.70;8.80;;;;;;;32.73;12.99;100326.94;5081890;28;20052;-75
2021/04/21 11:00:24;;;;;;;10.00;9.00;;;;;;;31.98;13.33;100323.94;5078939;28;20047;-74
2021/04/21 11:03:06;;;;;;;10.80;9.13;;;;;;;31.76;13.03;100328.38;5079274;28;20048;-74
2021/04/21 11:05:52;;;;;;;9.93;8.93;;;;;;;33.54;12.12;100319.13;5078657;28;20056;-75
2021/04/21 11:08:22;;;;;;;8.77;7.78;;;;;;;36.01;10.51;100314.47;5084979;28;20053;-75
2021/04/21 11:10:52;;;;;;;9.70;7.90;;;;;;;37.50;9.63;100315.25;5082246;28;20044;-74
2021/04/21 11:13:42;;;;;;;8.80;7.97;;;;;;;37.61;8.98;100317.59;5078810;28;20482;-74
2021/04/21 11:16:37;;;;;;;8.77;7.95;;;;;;;37.01;9.62;100324.81;5080501;28;20044;-74
2021/04/21 11:19:27;;;;;;;11.93;8.50;;;;;;;35.65;10.15;100315.56;5083122;28;20063;-75
2021/04/21 11:22:14;;;;;;;8.82;7.93;;;;;;;34.24;10.66;100321.47;5088389;28;20060;-75
2021/04/21 11:24:42;;;;;;;8.43;7.63;;;;;;;33.60;10.69;100318.47;5089646;28;20520;-75
2021/04/21 11:27:42;;;;;;;7.90;7.10;;;;;;;34.13;11.00;100315.38;5091578;28;20052;-76
2021/04/21 11:30:54;;;;;;;10.25;7.82;;;;;;;33.21;11.44;100320.94;5066791;28;20504;-74
2021/04/21 11:33:57;;;;;;;10.65;7.40;;;;;;;32.41;11.61;100317.41;5086044;28;20059;-73
2021/04/21 11:36:52;;;;;;;10.15;7.93;;;;;;;35.18;11.20;100312.09;5086448;28;20057;-73
2021/04/21 11:39:48;;;;;;;8.75;7.80;;;;;;;37.56;9.11;100318.25;5088694;28;20051;-74
2021/04/21 11:42:20;;;;;;;8.52;7.72;;;;;;;39.48;7.28;100302.78;5090200;28;20462;-74
2021/04/21 11:44:56;;;;;;;8.73;7.55;;;;;;;40.92;7.18;100308.03;5089448;28;20408;-73
2021/04/21 11:47:42;;;;;;;9.90;8.05;;;;;;;38.46;8.06;100306.97;5089095;28;20051;-73
2021/04/21 11:50:14;;;;;;;8.60;7.15;;;;;;;37.07;8.96;100311.97;5084932;28;20044;-73